createdAt,value
2019-04-29T00:00:03.527Z,16.30
2019-04-29T00:02:36.282Z,16.30
2019-04-29T00:05:06.880Z,16.30
2019-04-29T00:07:36.515Z,16.30
2019-04-29T00:10:08.341Z,16.30
2019-04-29T00:12:38.073Z,16.30
2019-04-29T00:15:26.759Z,16.30
2019-04-29T00:18:00.834Z,16.30
2019-04-29T00:20:45.938Z,16.30
2019-04-29T00:23:15.524Z,16.30
2019-04-29T00:25:45.186Z,16.30
2019-04-29T00:28:14.781Z,16.20
2019-04-29T00:30:44.578Z,16.20
2019-04-29T00:33:14.190Z,16.30
2019-04-29T00:35:43.866Z,16.20
2019-04-29T00:38:38.661Z,16.20
2019-04-29T00:41:30.378Z,16.20
2019-04-29T00:44:02.451Z,16.20
2019-04-29T00:46:32.069Z,16.20
2019-04-29T00:49:01.727Z,16.20
2019-04-29T00:51:31.340Z,16.20
2019-04-29T00:54:12.267Z,16.20
2019-04-29T00:56:41.123Z,16.20
2019-04-29T00:59:10.748Z,16.20
2019-04-29T01:01:40.444Z,16.20
2019-04-29T01:04:10.096Z,16.10
2019-04-29T01:06:39.682Z,16.20
2019-04-29T01:09:13.977Z,16.10
2019-04-29T01:11:43.628Z,16.10
2019-04-29T01:14:13.200Z,16.10
2019-04-29T01:16:42.869Z,16.10
2019-04-29T01:19:12.500Z,16.10
2019-04-29T01:21:42.138Z,16.10
2019-04-29T01:24:11.754Z,16.10
2019-04-29T01:27:12.772Z,16.10
2019-04-29T01:29:42.434Z,16.10
2019-04-29T01:32:12.160Z,16.10
2019-04-29T01:34:48.977Z,16.10
2019-04-29T01:37:18.581Z,16.10
2019-04-29T01:40:06.546Z,16.10
2019-04-29T01:42:39.154Z,16.00
2019-04-29T01:45:08.743Z,16.00
2019-04-29T01:47:38.339Z,16.00
2019-04-29T01:50:07.942Z,16.00
2019-04-29T01:52:37.624Z,16.00
2019-04-29T01:55:07.256Z,16.10
2019-04-29T01:57:36.872Z,16.00
2019-04-29T02:00:06.510Z,16.00
2019-04-29T02:02:36.315Z,16.00
2019-04-29T02:05:06.018Z,16.00
2019-04-29T02:07:35.622Z,16.00
2019-04-29T02:10:18.642Z,15.90
2019-04-29T02:12:48.210Z,15.90
2019-04-29T02:15:17.906Z,16.00
2019-04-29T02:17:47.511Z,15.90
2019-04-29T02:20:17.121Z,15.90
2019-04-29T02:22:52.320Z,15.90
2019-04-29T02:25:27.736Z,15.90
2019-04-29T02:27:57.312Z,15.90
2019-04-29T02:30:52.285Z,15.90
2019-04-29T02:33:21.931Z,15.90
2019-04-29T02:35:51.499Z,15.90
2019-04-29T02:38:45.965Z,15.90
2019-04-29T02:41:34.619Z,15.80
2019-04-29T02:44:05.963Z,15.90
2019-04-29T02:46:35.532Z,15.80
2019-04-29T02:49:05.132Z,15.80
2019-04-29T02:51:48.091Z,15.80
2019-04-29T02:54:17.640Z,15.80
2019-04-29T02:56:51.560Z,15.80
2019-04-29T02:59:26.524Z,15.80
2019-04-29T03:02:13.632Z,15.80
2019-04-29T03:05:08.191Z,15.80
2019-04-29T03:07:39.405Z,15.80
2019-04-29T03:10:09.678Z,15.80
2019-04-29T03:12:39.994Z,15.80
2019-04-29T03:15:09.587Z,15.80
2019-04-29T03:17:40.782Z,15.80
2019-04-29T03:20:19.322Z,15.80
2019-04-29T03:22:49.074Z,15.70
2019-04-29T03:25:18.672Z,15.80
2019-04-29T03:27:49.900Z,15.80
2019-04-29T03:30:19.502Z,15.80
2019-04-29T03:32:49.112Z,15.70
2019-04-29T03:35:18.743Z,15.70
2019-04-29T03:37:48.334Z,15.70
2019-04-29T03:40:17.977Z,15.70
2019-04-29T03:42:47.554Z,15.70
2019-04-29T03:45:17.253Z,15.70
2019-04-29T03:47:46.864Z,15.70
2019-04-29T03:50:16.480Z,15.70
2019-04-29T03:52:46.097Z,15.60
2019-04-29T03:55:17.295Z,15.70
2019-04-29T03:57:46.960Z,15.70
2019-04-29T04:00:18.437Z,15.60
2019-04-29T04:03:20.115Z,15.60
2019-04-29T04:06:08.795Z,15.60
2019-04-29T04:09:04.679Z,15.60
2019-04-29T04:11:21.857Z,15.60
2019-04-29T04:13:51.506Z,15.60
2019-04-29T04:16:39.173Z,15.60
2019-04-29T04:19:11.130Z,15.60
2019-04-29T04:21:40.930Z,15.60
2019-04-29T04:24:10.522Z,15.60
2019-04-29T04:26:40.111Z,15.60
2019-04-29T04:29:09.746Z,15.60
2019-04-29T04:31:39.383Z,15.60
2019-04-29T04:34:08.947Z,15.60
2019-04-29T04:36:38.563Z,15.50
2019-04-29T04:39:08.918Z,15.60
2019-04-29T04:41:39.706Z,15.60
2019-04-29T04:44:10.560Z,15.60
2019-04-29T04:46:41.508Z,15.50
2019-04-29T04:49:15.768Z,15.50
2019-04-29T04:51:44.881Z,15.50
2019-04-29T04:54:16.041Z,15.50
2019-04-29T04:56:47.075Z,15.50
2019-04-29T04:59:18.679Z,15.50
2019-04-29T05:01:49.669Z,15.50
2019-04-29T05:04:20.964Z,15.50
2019-04-29T05:06:52.143Z,15.50
2019-04-29T05:09:23.293Z,15.50
2019-04-29T05:11:54.190Z,15.50
2019-04-29T05:14:25.370Z,15.50
2019-04-29T05:16:56.405Z,15.50
2019-04-29T05:19:27.522Z,15.50
2019-04-29T05:21:58.561Z,15.50
2019-04-29T05:24:29.705Z,15.50
2019-04-29T05:27:00.780Z,15.50
2019-04-29T05:29:31.741Z,15.50
2019-04-29T05:32:02.318Z,15.50
2019-04-29T05:34:34.489Z,15.50
2019-04-29T05:37:24.268Z,15.50
2019-04-29T05:39:54.239Z,15.50
2019-04-29T05:42:24.654Z,15.40
2019-04-29T05:45:10.353Z,15.50
2019-04-29T05:47:43.410Z,15.50
2019-04-29T05:50:38.227Z,15.50
2019-04-29T05:53:42.059Z,15.40
2019-04-29T05:56:12.041Z,15.40
2019-04-29T05:58:41.887Z,15.40
2019-04-29T06:01:17.040Z,15.50
2019-04-29T06:03:46.667Z,15.40
2019-04-29T06:06:16.309Z,15.50
2019-04-29T06:08:46.456Z,15.50
2019-04-29T06:11:16.528Z,15.50
2019-04-29T06:13:47.008Z,15.50
2019-04-29T06:16:20.972Z,15.50
2019-04-29T06:18:49.219Z,15.50
2019-04-29T06:21:19.754Z,15.50
2019-04-29T06:23:50.227Z,15.50
2019-04-29T06:26:20.612Z,15.50
2019-04-29T06:28:51.032Z,15.50
2019-04-29T06:31:21.219Z,15.50
2019-04-29T06:33:52.182Z,15.50
2019-04-29T06:36:22.458Z,15.40
2019-04-29T06:38:52.741Z,15.50
2019-04-29T06:41:23.167Z,15.50
2019-04-29T06:43:56.014Z,15.50
2019-04-29T06:46:26.233Z,15.50
2019-04-29T06:49:09.242Z,15.50
2019-04-29T06:51:27.265Z,15.50
2019-04-29T06:53:56.977Z,15.60
2019-04-29T06:56:26.514Z,15.60
2019-04-29T06:58:56.109Z,15.60
2019-04-29T07:01:25.740Z,15.60
2019-04-29T07:03:55.761Z,15.60
2019-04-29T07:06:26.696Z,15.60
2019-04-29T07:08:56.347Z,15.70
2019-04-29T07:11:26.003Z,15.70
2019-04-29T07:13:57.599Z,15.70
2019-04-29T07:16:31.664Z,15.70
2019-04-29T07:18:58.443Z,15.70
2019-04-29T07:21:28.143Z,15.70
2019-04-29T07:23:59.371Z,15.70
2019-04-29T07:26:28.949Z,15.70
2019-04-29T07:28:58.579Z,15.80
2019-04-29T07:31:33.355Z,15.80
2019-04-29T07:34:01.267Z,15.80
2019-04-29T07:36:30.935Z,15.80
2019-04-29T07:39:00.588Z,15.80
2019-04-29T07:41:31.833Z,15.80
2019-04-29T07:44:01.800Z,15.90
2019-04-29T07:46:55.593Z,15.90
2019-04-29T07:49:12.666Z,15.90
2019-04-29T07:51:43.188Z,15.90
2019-04-29T07:54:15.871Z,16.00
2019-04-29T07:56:44.595Z,16.00
2019-04-29T07:59:14.241Z,16.00
2019-04-29T08:01:43.850Z,16.00
2019-04-29T08:04:13.428Z,16.00
2019-04-29T08:06:44.819Z,16.10
2019-04-29T08:09:14.411Z,16.10
2019-04-29T08:11:44.067Z,16.10
2019-04-29T08:14:13.773Z,16.10
2019-04-29T08:16:43.381Z,16.20
2019-04-29T08:19:13.037Z,16.20
2019-04-29T08:21:45.399Z,16.20
2019-04-29T08:24:15.755Z,16.20
2019-04-29T08:26:47.586Z,16.30
2019-04-29T08:29:16.703Z,16.30
2019-04-29T08:31:46.318Z,16.30
2019-04-29T08:34:18.623Z,16.30
2019-04-29T08:36:47.309Z,16.40
2019-04-29T08:39:16.902Z,16.40
2019-04-29T08:41:46.593Z,16.40
2019-04-29T08:44:42.477Z,16.50
2019-04-29T08:47:17.050Z,16.50
2019-04-29T08:49:46.722Z,16.50
2019-04-29T08:52:16.438Z,16.50
2019-04-29T08:54:46.108Z,16.50
2019-04-29T08:57:17.416Z,16.60
2019-04-29T08:59:47.110Z,16.60
2019-04-29T09:02:16.906Z,16.60
2019-04-29T09:04:53.619Z,16.70
2019-04-29T09:07:22.169Z,16.70
2019-04-29T09:09:49.434Z,16.70
2019-04-29T09:12:24.289Z,16.80
2019-04-29T09:14:52.212Z,16.80
2019-04-29T09:17:22.003Z,16.80
2019-04-29T09:19:51.967Z,16.90
2019-04-29T09:22:23.409Z,16.90
2019-04-29T09:25:11.055Z,16.80
2019-04-29T09:27:44.950Z,16.90
2019-04-29T09:30:15.130Z,16.90
2019-04-29T09:32:45.177Z,16.90
2019-04-29T09:35:15.510Z,17.00
2019-04-29T09:37:48.366Z,17.00
2019-04-29T09:40:23.077Z,17.00
2019-04-29T09:43:25.170Z,17.10
2019-04-29T09:46:00.386Z,17.10
2019-04-29T09:48:33.154Z,17.20
2019-04-29T09:51:16.391Z,17.20
2019-04-29T09:53:35.379Z,17.20
2019-04-29T09:56:05.323Z,17.20
2019-04-29T09:58:35.275Z,17.20
2019-04-29T10:01:20.911Z,17.20
2019-04-29T10:04:12.533Z,17.20
2019-04-29T10:06:47.319Z,17.30
2019-04-29T10:09:17.566Z,17.20
2019-04-29T10:11:50.586Z,17.20
2019-04-29T10:14:22.940Z,17.30
2019-04-29T10:17:11.157Z,17.30
2019-04-29T10:19:51.310Z,17.30
2019-04-29T10:22:23.498Z,17.30
2019-04-29T10:24:55.032Z,17.40
2019-04-29T10:27:34.294Z,17.40
2019-04-29T10:30:07.645Z,17.50
2019-04-29T10:33:02.158Z,17.50
2019-04-29T10:35:36.299Z,17.50
2019-04-29T10:38:10.401Z,17.60
2019-04-29T10:41:04.552Z,17.60
2019-04-29T10:44:19.984Z,17.60
2019-04-29T10:47:10.165Z,17.60
2019-04-29T10:49:59.511Z,17.70
2019-04-29T10:52:38.602Z,17.70
2019-04-29T10:55:09.378Z,17.70
2019-04-29T10:57:40.000Z,17.80
2019-04-29T11:00:23.527Z,17.80
2019-04-29T11:02:53.617Z,17.90
2019-04-29T11:05:31.503Z,17.80
2019-04-29T11:08:05.390Z,17.80
2019-04-29T11:10:35.365Z,17.90
2019-04-29T11:13:05.435Z,17.90
2019-04-29T11:15:37.135Z,17.90
2019-04-29T11:18:07.218Z,17.90
2019-04-29T11:20:37.472Z,17.90
2019-04-29T11:23:29.786Z,18.00
2019-04-29T11:26:23.174Z,18.00
2019-04-29T11:28:54.831Z,18.00
2019-04-29T11:31:25.665Z,18.00
2019-04-29T11:34:18.018Z,18.00
2019-04-29T11:37:00.683Z,18.00
2019-04-29T11:39:31.012Z,18.00
2019-04-29T11:42:02.723Z,18.00
2019-04-29T11:44:32.747Z,18.00
2019-04-29T11:47:08.386Z,18.00
2019-04-29T11:49:48.263Z,18.00
2019-04-29T11:52:28.058Z,18.00
2019-04-29T11:55:19.891Z,18.00
2019-04-29T11:58:06.943Z,18.00
2019-04-29T12:01:08.447Z,18.00
2019-04-29T12:03:39.199Z,18.00
2019-04-29T12:06:10.319Z,18.00
2019-04-29T12:08:39.912Z,18.00
2019-04-29T12:11:09.564Z,18.10
2019-04-29T12:14:06.492Z,18.10
2019-04-29T12:16:43.240Z,18.10
2019-04-29T12:19:22.844Z,18.10
2019-04-29T12:21:52.543Z,18.10
2019-04-29T12:24:22.551Z,18.20
2019-04-29T12:26:52.473Z,18.20
2019-04-29T12:29:22.280Z,18.20
2019-04-29T12:32:05.038Z,18.30
2019-04-29T12:34:51.647Z,18.30
2019-04-29T12:37:39.519Z,18.30
2019-04-29T12:40:45.616Z,18.30
2019-04-29T12:43:33.748Z,18.30
2019-04-29T12:46:10.238Z,18.30
2019-04-29T12:48:39.164Z,18.30
2019-04-29T12:51:08.850Z,18.30
2019-04-29T12:53:38.506Z,18.40
2019-04-29T12:56:11.356Z,18.40
2019-04-29T12:58:40.250Z,18.50
2019-04-29T13:01:54.234Z,18.50
2019-04-29T13:04:15.912Z,18.50
2019-04-29T13:07:02.446Z,18.50
2019-04-29T13:09:37.960Z,18.50
2019-04-29T13:12:19.192Z,18.50
2019-04-29T13:14:45.972Z,18.60
2019-04-29T13:17:26.504Z,18.60
2019-04-29T13:20:02.417Z,18.60
2019-04-29T13:22:32.378Z,18.60
2019-04-29T13:25:03.729Z,18.60
2019-04-29T13:27:33.446Z,18.60
2019-04-29T13:30:07.289Z,18.60
2019-04-29T13:32:36.312Z,18.70
2019-04-29T13:35:10.482Z,18.60
2019-04-29T13:37:40.104Z,18.70
2019-04-29T13:40:09.773Z,18.70
2019-04-29T13:42:39.598Z,18.70
2019-04-29T13:45:14.096Z,18.70
2019-04-29T13:48:15.802Z,18.70
2019-04-29T13:50:52.522Z,18.70
2019-04-29T13:53:22.241Z,18.70
2019-04-29T13:56:10.061Z,18.70
2019-04-29T13:58:27.024Z,18.70
2019-04-29T14:01:22.030Z,18.70
2019-04-29T14:03:49.535Z,18.80
2019-04-29T14:06:19.937Z,18.70
2019-04-29T14:08:50.277Z,18.70
2019-04-29T14:11:21.863Z,18.80
2019-04-29T14:13:51.351Z,18.80
2019-04-29T14:16:21.065Z,18.80
2019-04-29T14:18:50.693Z,18.80
2019-04-29T14:21:20.337Z,18.80
2019-04-29T14:23:50.049Z,18.80
2019-04-29T14:26:19.718Z,18.80
2019-04-29T14:28:49.370Z,18.90
2019-04-29T14:31:22.696Z,18.90
2019-04-29T14:34:00.351Z,18.90
2019-04-29T14:36:30.562Z,18.90
2019-04-29T14:39:00.174Z,18.80
2019-04-29T14:41:31.440Z,18.90
2019-04-29T14:44:38.546Z,18.90
2019-04-29T14:47:22.356Z,18.90
2019-04-29T14:49:55.537Z,18.80
2019-04-29T14:52:26.992Z,18.90
2019-04-29T14:54:56.718Z,18.90
2019-04-29T14:57:28.013Z,18.90
2019-04-29T14:59:57.729Z,18.90
2019-04-29T15:02:28.184Z,18.90
2019-04-29T15:04:58.000Z,18.90
2019-04-29T15:07:36.159Z,18.90
2019-04-29T15:10:08.118Z,18.90
2019-04-29T15:13:19.749Z,18.90
2019-04-29T15:16:04.610Z,18.90
2019-04-29T15:19:02.864Z,18.90
2019-04-29T15:21:45.079Z,18.90
2019-04-29T15:24:13.856Z,18.90
2019-04-29T15:26:45.214Z,18.90
2019-04-29T15:29:14.766Z,18.90
2019-04-29T15:31:47.177Z,19.00
2019-04-29T15:34:15.664Z,18.90
2019-04-29T15:36:45.294Z,19.00
2019-04-29T15:39:15.197Z,19.00
2019-04-29T15:41:45.616Z,19.00
2019-04-29T15:44:20.300Z,19.00
2019-04-29T15:46:47.294Z,19.00
2019-04-29T15:49:22.912Z,19.00
2019-04-29T15:51:51.071Z,19.00
2019-04-29T15:54:21.144Z,19.00
2019-04-29T15:56:50.986Z,19.00
2019-04-29T15:59:21.234Z,19.00
2019-04-29T16:01:50.820Z,19.00
2019-04-29T16:04:32.477Z,19.00
2019-04-29T16:07:31.619Z,19.00
2019-04-29T16:10:20.731Z,19.00
2019-04-29T16:12:54.622Z,19.00
2019-04-29T16:15:24.240Z,19.00
2019-04-29T16:17:54.014Z,19.00
2019-04-29T16:20:23.610Z,19.00
2019-04-29T16:22:54.104Z,19.00
2019-04-29T16:25:24.710Z,19.00
2019-04-29T16:27:54.403Z,19.00
2019-04-29T16:30:26.084Z,19.00
2019-04-29T16:32:55.488Z,19.00
2019-04-29T16:35:27.084Z,19.00
2019-04-29T16:37:56.445Z,19.00
2019-04-29T16:40:33.909Z,19.00
2019-04-29T16:43:17.998Z,19.00
2019-04-29T16:46:04.604Z,19.00
2019-04-29T16:48:34.297Z,19.00
2019-04-29T16:51:06.681Z,18.90
2019-04-29T16:53:35.194Z,19.00
2019-04-29T16:56:04.888Z,19.00
2019-04-29T16:58:34.541Z,19.00
2019-04-29T17:01:04.396Z,19.00
2019-04-29T17:03:34.070Z,19.00
2019-04-29T17:06:03.919Z,19.00
2019-04-29T17:09:02.978Z,19.00
2019-04-29T17:11:29.227Z,19.00
2019-04-29T17:14:03.562Z,19.00
2019-04-29T17:16:30.393Z,19.00
2019-04-29T17:18:59.938Z,19.00
2019-04-29T17:21:29.639Z,19.00
2019-04-29T17:23:59.297Z,19.00
2019-04-29T17:26:37.672Z,19.00
2019-04-29T17:29:38.903Z,19.00
2019-04-29T17:32:15.604Z,19.00
2019-04-29T17:34:58.643Z,19.00
2019-04-29T17:37:18.920Z,19.00
2019-04-29T17:39:48.483Z,19.00
2019-04-29T17:42:18.161Z,19.00
2019-04-29T17:44:47.770Z,19.00
2019-04-29T17:47:37.836Z,19.00
2019-04-29T17:50:28.861Z,19.00
2019-04-29T17:52:48.510Z,19.00
2019-04-29T17:55:45.001Z,19.00
2019-04-29T17:58:29.017Z,19.00
2019-04-29T18:01:16.749Z,18.80
2019-04-29T18:04:11.814Z,18.70
2019-04-29T18:06:45.671Z,18.60
2019-04-29T18:09:28.928Z,18.60
2019-04-29T18:12:01.069Z,18.70
2019-04-29T18:14:37.898Z,18.70
2019-04-29T18:17:02.743Z,18.70
2019-04-29T18:20:13.467Z,18.80
2019-04-29T18:22:58.262Z,18.80
2019-04-29T18:25:38.962Z,18.70
2019-04-29T18:28:09.027Z,18.70
2019-04-29T18:30:39.033Z,18.70
2019-04-29T18:33:08.990Z,18.70
2019-04-29T18:35:38.710Z,18.70
2019-04-29T18:38:12.028Z,18.70
2019-04-29T18:40:42.199Z,18.70
2019-04-29T18:43:11.270Z,18.70
2019-04-29T18:45:53.016Z,18.70
2019-04-29T18:48:16.983Z,18.70
2019-04-29T18:50:44.059Z,18.70
2019-04-29T18:53:15.498Z,18.70
2019-04-29T18:55:45.416Z,18.60
2019-04-29T18:58:16.025Z,18.60
2019-04-29T19:00:52.411Z,18.70
2019-04-29T19:03:20.881Z,18.60
2019-04-29T19:05:55.179Z,18.60
2019-04-29T19:08:28.586Z,18.60
2019-04-29T19:10:56.583Z,18.60
2019-04-29T19:13:26.295Z,18.60
2019-04-29T19:16:09.090Z,18.60
2019-04-29T19:18:29.320Z,18.50
2019-04-29T19:20:59.230Z,18.50
2019-04-29T19:23:29.730Z,18.50
2019-04-29T19:26:00.053Z,18.50
2019-04-29T19:28:32.280Z,18.50
2019-04-29T19:31:03.035Z,18.50
2019-04-29T19:33:35.675Z,18.50
2019-04-29T19:36:08.113Z,18.50
2019-04-29T19:38:36.107Z,18.50
2019-04-29T19:41:05.876Z,18.50
2019-04-29T19:43:35.986Z,18.50
2019-04-29T19:46:06.280Z,18.50
2019-04-29T19:48:36.693Z,18.50
2019-04-29T19:51:14.812Z,18.50
2019-04-29T19:53:42.768Z,18.40
2019-04-29T19:56:12.584Z,18.40
2019-04-29T19:58:45.607Z,18.40
2019-04-29T20:01:26.635Z,18.40
2019-04-29T20:04:06.282Z,18.40
2019-04-29T20:06:40.792Z,18.40
2019-04-29T20:09:17.402Z,18.40
2019-04-29T20:11:45.891Z,18.40
2019-04-29T20:14:20.089Z,18.40
2019-04-29T20:17:12.751Z,18.40
2019-04-29T20:19:46.204Z,18.40
2019-04-29T20:22:16.554Z,18.30
2019-04-29T20:24:50.574Z,18.30
2019-04-29T20:27:26.115Z,18.30
2019-04-29T20:29:55.821Z,18.30
2019-04-29T20:32:37.182Z,18.30
2019-04-29T20:35:10.456Z,18.30
2019-04-29T20:37:43.666Z,18.30
2019-04-29T20:40:34.911Z,18.30
2019-04-29T20:42:56.016Z,18.30
2019-04-29T20:45:28.943Z,18.30
2019-04-29T20:48:11.110Z,18.30
2019-04-29T20:50:40.830Z,18.30
2019-04-29T20:53:16.493Z,18.30
2019-04-29T20:55:48.743Z,18.30
2019-04-29T20:58:23.018Z,18.20
2019-04-29T21:00:56.504Z,18.20
2019-04-29T21:03:32.021Z,18.20
2019-04-29T21:06:11.709Z,18.20
2019-04-29T21:08:58.462Z,18.20
2019-04-29T21:11:51.586Z,18.20
2019-04-29T21:14:33.984Z,18.20
2019-04-29T21:17:09.520Z,18.10
2019-04-29T21:19:38.503Z,18.10
2019-04-29T21:22:12.869Z,18.10
2019-04-29T21:24:49.499Z,18.10
2019-04-29T21:27:26.052Z,18.10
2019-04-29T21:29:56.223Z,18.10
2019-04-29T21:32:40.217Z,18.10
2019-04-29T21:35:35.365Z,18.10
2019-04-29T21:38:38.098Z,18.10
2019-04-29T21:44:03.375Z,18.00
2019-04-29T21:46:45.216Z,18.10
2019-04-29T21:49:25.789Z,18.00
2019-04-29T21:52:02.983Z,18.00
2019-04-29T21:54:59.596Z,18.00
2019-04-29T21:57:29.978Z,18.00
2019-04-29T22:00:15.832Z,18.00
2019-04-29T22:02:50.475Z,18.00
2019-04-29T22:05:42.793Z,18.00
2019-04-29T22:08:35.861Z,18.00
2019-04-29T22:11:37.215Z,18.00
2019-04-29T22:14:20.098Z,17.90
2019-04-29T22:16:54.372Z,18.00
2019-04-29T22:19:50.352Z,18.00
2019-04-29T22:22:25.081Z,17.90
2019-04-29T22:24:57.613Z,17.90
2019-04-29T22:27:34.121Z,17.90
2019-04-29T22:30:20.650Z,17.90
2019-04-29T22:32:58.684Z,17.90
2019-04-29T22:35:45.246Z,17.90
2019-04-29T22:38:18.326Z,17.90
2019-04-29T22:40:55.086Z,17.90
2019-04-29T22:43:44.500Z,17.90
2019-04-29T22:46:17.224Z,17.90
2019-04-29T22:49:29.299Z,17.90
2019-04-29T22:52:06.006Z,17.80
2019-04-29T22:54:38.853Z,17.80
2019-04-29T22:57:09.946Z,17.80
2019-04-29T22:59:42.748Z,17.80
2019-04-29T23:02:28.412Z,17.80
2019-04-29T23:05:00.712Z,17.80
2019-04-29T23:07:35.246Z,17.80
2019-04-29T23:10:09.909Z,17.80
2019-04-29T23:12:41.851Z,17.80
2019-04-29T23:15:15.041Z,17.80
2019-04-29T23:17:50.227Z,17.80
2019-04-29T23:20:45.552Z,17.70
2019-04-29T23:23:29.128Z,17.80
2019-04-29T23:25:59.888Z,17.70
2019-04-29T23:28:28.444Z,17.70
2019-04-29T23:30:58.962Z,17.70
2019-04-29T23:33:31.930Z,17.70
2019-04-29T23:36:03.842Z,17.70
2019-04-29T23:38:33.808Z,17.70
2019-04-29T23:41:07.207Z,17.70
2019-04-29T23:43:37.283Z,17.70
2019-04-29T23:46:08.061Z,17.70
2019-04-29T23:48:41.532Z,17.70
2019-04-29T23:51:12.984Z,17.70
2019-04-29T23:53:45.637Z,17.70
2019-04-29T23:56:15.966Z,17.70
2019-04-29T23:58:57.242Z,17.70
